Huvudsida
METAR-TAF:

METAR-TAF

Flygplatser :

Örebro flygplats

Örebro, Sverige

latitud: 59-14N, longitud: 015-03E, höjd: 57 m

Aktuellt väderrapport

Denna rapport gjordes för 26 minuter sedan, klockan 12:50 UTC
Vind 9 kt från syd/sydost
Temperatur 17°C
Fuktighet 82%
Tryck 1007 hPa
Sikt 10 km eller mer
Få moln på en höjd av 5700 ft
duggregn

METAR: ESOE 171250Z 16009KT 9999 DZ FEW057 17/14 Q1007

Tid: 15:16 (13:16 UTC)

Väderprognos

Denna rapport gjordes för 1 timme och 46 minuter sedan, klockan 11:30 UTC
Prognos gäller från 17 kl. 12 UTC till 17 kl. 15 UTC
Vind 10 kt från syd
Sikt 10 km eller mer
Få moln på en höjd av 1500 ft
lätt duggregn
Temporärt
från 17 kl. 12 UTC till 17 kl. 14 UTC
regn
Sannolikhet 40%
från 17 kl. 14 UTC till 17 kl. 15 UTC
Brutna moln på en höjd av 1400 ft
regn

TAF: ESOE 171130Z 1712/1715 18010KT 9999 -DZ FEW015 TEMPO 1712/1714 RA PROB40 1714/1715 RA BKN014

Aktuella väderrapporter och prognoser från 4000 flygplatser (METAR- och TAF-rapporter).

De tillgängliga stationerna syns som gula och röda prickar på kartan.

För musen över prickarna för att se namnen på stationerna.

Klicka sedan för att få väderrapporter och prognoser.

För att ändra kartan: Klicka på de gröna knapparna med ett svart kors på för att zooma in; den gröna knappen med ett streck på för att zooma ut; eller på de gröna pilarna för angränsande kartor.


METAR-TAF: